Time;durP1;ratioP1;P1;durP2;ratioP2;P2;SDS_P1;SDS_P2;PMS_P1;PMS_P2;Temp;Humidity;BMP_temperature;BMP_pressure;BME280_temperature;BME280_humidity;BME280_pressure;Samples;Min_cycle;Max_cycle;Signal;HPM_P1;HPM_P2
2022/12/26 00:02:36;;;;;;;80.47;19.98;;;7.60;99.90;;;;;;5008301;28;20095;-85
2022/12/26 00:05:16;;;;;;;72.18;18.42;;;7.60;99.90;;;;;;4995961;28;20145;-84
2022/12/26 00:07:42;;;;;;;74.65;18.75;;;7.50;99.90;;;;;;4999600;28;20508;-85
2022/12/26 00:10:13;;;;;;;73.93;18.35;;;7.50;99.90;;;;;;5014403;28;20073;-85
2022/12/26 00:12:40;;;;;;;72.13;18.23;;;9.10;99.90;;;;;;5013693;28;20042;-84
2022/12/26 00:15:14;;;;;;;75.28;20.33;;;7.60;99.90;;;;;;5013067;28;20052;-87
2022/12/26 00:17:43;;;;;;;75.65;19.88;;;7.50;99.90;;;;;;5009953;28;20064;-85
2022/12/26 00:20:11;;;;;;;74.45;19.05;;;7.60;99.90;;;;;;4995573;28;20129;-86
2022/12/26 00:22:46;;;;;;;77.53;20.23;;;7.60;99.90;;;;;;4984958;28;20050;-85
2022/12/26 00:25:14;;;;;;;88.07;20.65;;;6.30;99.90;;;;;;5002872;28;20050;-85
2022/12/26 00:28:01;;;;;;;96.00;21.65;;;7.10;99.90;;;;;;5001434;28;20442;-85
2022/12/26 00:30:30;;;;;;;84.75;21.10;;;7.70;99.90;;;;;;4981721;28;20049;-88
2022/12/26 00:33:05;;;;;;;90.95;21.13;;;7.70;99.90;;;;;;5016045;28;20045;-86
2022/12/26 00:36:09;;;;;;;91.95;21.15;;;6.90;99.90;;;;;;4994066;28;20400;-87
2022/12/26 00:38:41;;;;;;;91.75;20.92;;;7.60;99.90;;;;;;4995809;28;20516;-86
2022/12/26 00:41:16;;;;;;;92.38;21.13;;;7.60;99.90;;;;;;5015381;28;20098;-86
2022/12/26 00:44:00;;;;;;;78.20;19.15;;;7.60;99.90;;;;;;4997312;28;20525;-84
2022/12/26 00:46:27;;;;;;;81.38;19.52;;;6.90;99.90;;;;;;5000091;28;20042;-84
2022/12/26 00:48:56;;;;;;;84.72;19.55;;;7.60;99.90;;;;;;5003579;28;20128;-84
2022/12/26 00:51:25;;;;;;;74.15;18.65;;;7.70;99.90;;;;;;4986984;28;20049;-84
2022/12/26 00:53:53;;;;;;;76.70;19.95;;;7.80;99.90;;;;;;4982008;28;20100;-85
2022/12/26 00:56:31;;;;;;;77.35;20.02;;;7.70;99.90;;;;;;5000805;28;20056;-85
2022/12/26 00:59:01;;;;;;;79.97;19.70;;;7.80;99.90;;;;;;4982255;28;20061;-85
2022/12/26 01:01:29;;;;;;;74.22;18.40;;;7.70;99.90;;;;;;5010293;28;20518;-86
2022/12/26 01:04:05;;;;;;;69.28;18.88;;;6.60;99.90;;;;;;5013795;28;20408;-86
2022/12/26 01:06:34;;;;;;;;;;;7.70;99.90;;;;;;5000483;28;20058;-85
2022/12/26 01:09:10;;;;;;;62.08;19.10;;;7.70;99.90;;;;;;4999627;28;19976;-86
2022/12/26 01:11:42;;;;;;;70.80;19.15;;;7.80;99.90;;;;;;4980470;28;20045;-87
2022/12/26 01:14:19;;;;;;;62.97;17.73;;;7.70;99.90;;;;;;4997943;28;20042;-88
2022/12/26 01:16:47;;;;;;;59.85;18.63;;;7.90;99.90;;;;;;5004413;28;20050;-86
2022/12/26 01:19:24;;;;;;;56.70;18.38;;;7.80;99.90;;;;;;4996202;28;20060;-84
2022/12/26 01:21:55;;;;;;;52.88;18.05;;;7.90;99.90;;;;;;5002675;28;20045;-86
2022/12/26 01:24:24;;;;;;;55.45;18.02;;;7.90;99.90;;;;;;5009848;28;20046;-85
2022/12/26 01:26:50;;;;;;;50.78;17.25;;;7.90;99.90;;;;;;5003696;28;20491;-85
2022/12/26 01:29:18;;;;;;;48.63;17.23;;;7.80;99.90;;;;;;4992993;28;20058;-85
2022/12/26 01:31:46;;;;;;;48.88;16.98;;;7.80;99.90;;;;;;4985279;28;20073;-85
2022/12/26 01:34:27;;;;;;;45.15;16.77;;;7.90;99.90;;;;;;4991329;28;20116;-87
2022/12/26 01:37:28;;;;;;;;;;;;;;;;;;;;;
2022/12/26 01:40:00;;;;;;;44.90;16.77;;;8.00;99.90;;;;;;5011852;28;20068;-85
2022/12/26 01:42:38;;;;;;;40.58;16.45;;;7.90;99.90;;;;;;4998799;28;20034;-85
2022/12/26 01:45:31;;;;;;;46.38;16.55;;;7.80;99.90;;;;;;4996985;28;20057;-87
2022/12/26 01:48:33;;;;;;;;;;;;;;;;;;;;;
2022/12/26 01:51:13;;;;;;;44.15;16.70;;;7.90;99.90;;;;;;5012912;28;20046;-85
2022/12/26 01:53:48;;;;;;;46.20;16.73;;;7.80;99.90;;;;;;5011777;28;20042;-84
2022/12/26 01:56:55;;;;;;;38.80;16.73;;;7.80;99.90;;;;;;4996202;28;20123;-89
2022/12/26 01:59:37;;;;;;;;;;;;;;;;;;;;;
2022/12/26 02:02:16;;;;;;;38.72;15.70;;;6.60;99.90;;;;;;5009334;28;20113;-85
2022/12/26 02:07:53;;;;;;;;;;;;;;;;;;;;;
2022/12/26 02:10:28;;;;;;;35.55;15.13;;;6.80;99.90;;;;;;5017890;28;20530;-86
2022/12/26 02:13:02;;;;;;;44.33;15.23;;;7.80;99.90;;;;;;5000555;28;20120;-85
2022/12/26 02:15:39;;;;;;;;;;;;;;;;;;;;;
2022/12/26 02:18:19;;;;;;;36.10;14.90;;;8.20;99.90;;;;;;5019467;28;20582;-85
2022/12/26 02:21:08;;;;;;;30.10;13.77;;;7.90;99.90;;;;;;4982522;28;20433;-85
2022/12/26 02:23:58;;;;;;;38.22;13.45;;;7.30;99.90;;;;;;4995344;28;20046;-86
2022/12/26 02:27:01;;;;;;;32.67;13.38;;;7.80;99.90;;;;;;5020786;28;20096;-84
2022/12/26 02:29:33;;;;;;;32.20;13.02;;;7.00;99.90;;;;;;4988944;28;20046;-84
2022/12/26 02:32:31;;;;;;;32.50;13.45;;;7.80;99.90;;;;;;5000280;28;20574;-84
2022/12/26 02:35:06;;;;;;;31.63;13.13;;;7.70;99.90;;;;;;5000419;28;20068;-85
2022/12/26 02:38:09;;;;;;;32.15;14.18;;;7.80;99.90;;;;;;4994866;28;20046;-85
2022/12/26 02:41:17;;;;;;;35.92;14.02;;;7.80;99.90;;;;;;5036615;28;20037;-84
2022/12/26 02:47:01;;;;;;;;;;;6.60;99.90;;;;;;4946099;28;20109;-86
2022/12/26 02:47:02;;;;;;;32.83;12.93;;;7.80;99.90;;;;;;5012655;28;20009;-84
2022/12/26 03:13:39;;;;;;;33.60;14.45;;;9.00;99.90;;;;;;5014905;28;20049;-84
2022/12/26 03:19:09;;;;;;;32.30;14.02;;;7.80;99.90;;;;;;5010949;28;20052;-84
2022/12/26 03:21:49;;;;;;;31.48;13.80;;;7.80;99.90;;;;;;4998944;28;20037;-83
2022/12/26 03:24:18;;;;;;;34.08;14.60;;;7.80;99.90;;;;;;5019548;28;20043;-84
2022/12/26 03:27:10;;;;;;;34.95;15.13;;;7.70;99.90;;;;;;4996076;28;20033;-84
2022/12/26 03:32:50;;;;;;;;;;;;;;;;;;;;;
2022/12/26 03:35:19;;;;;;;31.75;13.27;;;7.60;99.90;;;;;;5015174;28;20092;-86
2022/12/26 03:38:16;;;;;;;30.60;13.10;;;7.80;99.90;;;;;;5005230;28;20049;-86
2022/12/26 04:19:22;;;;;;;28.83;12.68;;;7.80;99.90;;;;;;5012124;28;20049;-87
2022/12/26 04:41:34;;;;;;;19.67;7.75;;;7.80;99.90;;;;;;5009850;28;20390;-85
2022/12/26 04:44:09;;;;;;;23.50;10.43;;;7.50;99.90;;;;;;5014116;28;20108;-84
2022/12/26 04:46:53;;;;;;;26.67;10.60;;;7.50;99.90;;;;;;4992912;28;20053;-87
2022/12/26 04:52:14;;;;;;;29.48;11.80;;;7.40;99.90;;;;;;5001128;28;20056;-85
2022/12/26 04:54:42;;;;;;;25.52;11.27;;;7.40;99.90;;;;;;5014711;28;20042;-88
2022/12/26 04:57:09;;;;;;;23.77;11.05;;;7.50;99.90;;;;;;4983040;28;20132;-85
2022/12/26 04:59:38;;;;;;;28.40;11.38;;;7.30;99.90;;;;;;5014619;28;20462;-87
2022/12/26 05:10:33;;;;;;;25.33;11.77;;;7.50;99.90;;;;;;5018016;28;20045;-85
2022/12/26 05:13:03;;;;;;;;;;;6.30;99.90;;;;;;4983513;28;21949;-84
2022/12/26 05:28:40;;;;;;;24.77;11.98;;;7.60;99.90;;;;;;4996510;28;19936;-85
2022/12/26 05:29:44;;;;;;;29.08;12.70;;;7.40;99.90;;;;;;5000894;28;20072;-87
2022/12/26 05:32:10;;;;;;;31.77;13.85;;;7.50;99.90;;;;;;4984248;28;20042;-85
2022/12/26 05:34:35;;;;;;;29.98;14.45;;;7.50;99.90;;;;;;4995365;28;20046;-86
2022/12/26 05:37:14;;;;;;;;;;;;;;;;;;;;;
2022/12/26 05:39:44;;;;;;;34.33;16.35;;;7.70;99.90;;;;;;4985661;28;20052;-86
2022/12/26 05:42:17;;;;;;;34.28;16.15;;;8.10;99.90;;;;;;4965596;28;20055;-84
2022/12/26 05:44:54;;;;;;;35.30;15.65;;;7.50;99.90;;;;;;4978697;28;20045;-87
2022/12/26 05:47:23;;;;;;;31.60;15.57;;;7.50;99.90;;;;;;5000170;28;20037;-84
2022/12/26 05:49:51;;;;;;;28.33;14.98;;;6.60;99.90;;;;;;5007489;28;20052;-85
2022/12/26 05:52:21;;;;;;;34.85;16.13;;;7.60;99.90;;;;;;4993946;28;20037;-84
2022/12/26 05:54:58;;;;;;;32.95;15.48;;;7.50;99.90;;;;;;4979116;28;20841;-84
2022/12/26 05:57:29;;;;;;;31.58;14.23;;;7.70;99.90;;;;;;4993525;28;20052;-83
2022/12/26 05:59:58;;;;;;;30.08;14.52;;;7.50;99.90;;;;;;5013530;28;20050;-85
2022/12/26 06:02:23;;;;;;;26.90;13.10;;;7.50;99.90;;;;;;4992846;28;20046;-85
2022/12/26 06:04:52;;;;;;;28.13;12.77;;;7.60;99.90;;;;;;4978990;28;20049;-84
2022/12/26 06:07:27;;;;;;;24.42;12.60;;;7.70;99.90;;;;;;4995588;28;20144;-84
2022/12/26 06:10:02;;;;;;;21.13;11.23;;;7.60;99.90;;;;;;5007938;28;20065;-85
2022/12/26 06:12:28;;;;;;;24.77;11.93;;;7.50;99.90;;;;;;5008936;28;20080;-85
2022/12/26 06:14:58;;;;;;;25.30;11.88;;;7.50;99.90;;;;;;4997047;28;20054;-84
2022/12/26 06:17:30;;;;;;;22.90;10.90;;;7.50;99.90;;;;;;4996106;28;20050;-83
2022/12/26 06:19:58;;;;;;;23.83;10.45;;;7.50;99.90;;;;;;4994590;28;20048;-84
2022/12/26 06:22:24;;;;;;;20.67;9.60;;;7.50;99.90;;;;;;4996221;28;20061;-85
2022/12/26 06:24:53;;;;;;;19.80;9.43;;;7.60;99.90;;;;;;4996500;28;20112;-87
2022/12/26 06:27:24;;;;;;;22.58;9.48;;;7.30;99.90;;;;;;4992761;28;20046;-84
2022/12/26 06:30:04;;;;;;;20.40;8.73;;;7.40;99.90;;;;;;4981544;28;20066;-88
2022/12/26 06:32:35;;;;;;;17.95;7.68;;;7.40;99.90;;;;;;4982644;28;20109;-84
2022/12/26 06:35:21;;;;;;;15.38;6.97;;;6.80;99.90;;;;;;5009615;28;20034;-84
2022/12/26 06:37:50;;;;;;;12.65;6.47;;;7.50;99.90;;;;;;4984079;28;20053;-88
2022/12/26 06:40:31;;;;;;;;;;;;;;;;;;;;;
2022/12/26 06:43:00;;;;;;;11.85;5.22;;;7.40;99.90;;;;;;4993662;28;20053;-83
2022/12/26 06:45:29;;;;;;;13.93;5.47;;;7.50;99.90;;;;;;4976796;28;20054;-86
2022/12/26 06:47:58;;;;;;;14.60;4.93;;;7.40;99.90;;;;;;4980301;28;20495;-87
2022/12/26 06:50:24;;;;;;;10.57;4.15;;;7.40;99.90;;;;;;4995598;28;20048;-84
2022/12/26 06:53:02;;;;;;;10.45;4.57;;;7.40;99.90;;;;;;4997443;28;20057;-83
2022/12/26 06:55:33;;;;;;;14.45;4.32;;;7.30;99.90;;;;;;4997577;28;20078;-86
2022/12/26 06:58:01;;;;;;;12.05;3.55;;;7.30;99.90;;;;;;5014267;28;20054;-87
2022/12/26 07:00:32;;;;;;;12.57;3.30;;;7.30;99.90;;;;;;4979193;28;20037;-85
2022/12/26 07:03:25;;;;;;;18.52;3.90;;;6.30;99.90;;;;;;4978129;28;20052;-84
2022/12/26 07:05:56;;;;;;;11.25;3.70;;;7.30;99.90;;;;;;5000904;28;20077;-87
2022/12/26 07:08:22;;;;;;;9.07;3.80;;;8.20;99.90;;;;;;5007241;28;20054;-86
2022/12/26 07:11:01;;;;;;;;;;;;;;;;;;;;;
2022/12/26 07:13:28;;;;;;;13.93;3.53;;;7.20;99.90;;;;;;5008502;28;20074;-85
2022/12/26 07:16:00;;;;;;;11.75;3.88;;;7.30;99.90;;;;;;4991922;28;20037;-87
2022/12/26 07:18:36;;;;;;;11.20;3.92;;;7.30;99.90;;;;;;5012583;28;20044;-83
2022/12/26 07:21:24;;;;;;;14.90;3.85;;;8.00;99.90;;;;;;4996371;28;20046;-87
2022/12/26 07:24:10;;;;;;;10.32;3.80;;;7.20;99.90;;;;;;4992637;28;20050;-86
2022/12/26 07:26:39;;;;;;;8.95;3.28;;;7.20;99.90;;;;;;4973719;28;20050;-89
2022/12/26 07:29:25;;;;;;;10.30;3.63;;;7.30;99.90;;;;;;4996507;28;20133;-86
2022/12/26 07:32:01;;;;;;;11.27;3.50;;;7.20;99.90;;;;;;4995827;28;20041;-86
2022/12/26 07:34:39;;;;;;;8.48;2.78;;;7.40;99.90;;;;;;4996088;28;20053;-87
2022/12/26 07:37:29;;;;;;;15.10;4.15;;;7.30;99.90;;;;;;4963443;28;20149;-89
2022/12/26 07:39:59;;;;;;;14.32;3.65;;;6.20;99.90;;;;;;5015687;28;20548;-86
2022/12/26 07:42:40;;;;;;;;;;;;;;;;;;;;;
2022/12/26 07:45:17;;;;;;;;;;;;;;;;;;;;;
2022/12/26 07:47:43;;;;;;;13.10;3.40;;;7.40;99.90;;;;;;5012000;28;20038;-86
2022/12/26 07:50:28;;;;;;;;;;;;;;;;;;;;;
2022/12/26 07:53:05;;;;;;;11.35;3.17;;;7.60;99.90;;;;;;5000255;28;20387;-85
2022/12/26 07:58:50;;;;;;;;;;;;;;;;;;;;;
2022/12/26 08:01:27;;;;;;;11.40;4.20;;;7.50;99.90;;;;;;5010714;28;20614;-87
2022/12/26 08:03:59;;;;;;;11.32;3.55;;;7.60;99.90;;;;;;4998400;28;20077;-86
2022/12/26 08:06:30;;;;;;;10.73;3.90;;;7.70;99.90;;;;;;4970687;28;20053;-86
2022/12/26 08:08:59;;;;;;;9.75;3.80;;;;;;;;;;4997780;28;20045;-84
2022/12/26 08:11:30;;;;;;;11.10;3.13;;;7.70;99.90;;;;;;5013221;28;20116;-84
2022/12/26 08:14:38;;;;;;;11.40;3.60;;;7.70;99.90;;;;;;4984618;28;20049;-85
2022/12/26 08:17:21;;;;;;;17.15;4.15;;;7.80;99.90;;;;;;4990726;28;20310;-87
2022/12/26 08:19:52;;;;;;;19.20;3.70;;;7.80;99.90;;;;;;4996607;28;20162;-84
2022/12/26 08:22:18;;;;;;;18.75;3.78;;;7.60;99.90;;;;;;4981159;28;20037;-86
2022/12/26 08:24:47;;;;;;;14.80;3.13;;;7.80;99.90;;;;;;4999609;28;20533;-86
2022/12/26 08:27:19;;;;;;;12.25;2.97;;;7.60;99.90;;;;;;5007753;28;20049;-85
2022/12/26 08:29:50;;;;;;;13.65;2.88;;;7.70;99.90;;;;;;4995847;28;20097;-86
2022/12/26 08:32:16;;;;;;;18.73;3.30;;;7.80;99.90;;;;;;4998974;28;20050;-83
2022/12/26 08:34:44;;;;;;;16.33;3.45;;;7.70;99.90;;;;;;4999452;28;20045;-87
2022/12/26 08:37:12;;;;;;;16.80;3.53;;;7.60;99.90;;;;;;4998625;28;20046;-85
2022/12/26 08:39:38;;;;;;;17.65;3.50;;;7.60;99.90;;;;;;5001334;28;20053;-84
2022/12/26 08:42:04;;;;;;;24.33;3.90;;;7.60;99.90;;;;;;5013170;28;20794;-83
2022/12/26 08:44:30;;;;;;;24.45;4.25;;;7.60;99.90;;;;;;4980322;28;20053;-83
2022/12/26 08:46:56;;;;;;;26.55;4.57;;;7.50;99.90;;;;;;4997651;28;20084;-84
2022/12/26 08:49:21;;;;;;;20.88;4.30;;;7.40;99.90;;;;;;4975696;28;20064;-84
2022/12/26 08:51:47;;;;;;;18.77;3.28;;;7.30;99.90;;;;;;4980508;28;20041;-85
2022/12/26 08:54:13;;;;;;;17.65;3.63;;;7.20;99.90;;;;;;4992558;28;20089;-86
2022/12/26 08:56:42;;;;;;;16.20;3.00;;;7.10;99.90;;;;;;4966811;28;20053;-89
2022/12/26 08:59:07;;;;;;;13.90;2.67;;;6.90;99.90;;;;;;5012015;28;20069;-85
2022/12/26 09:01:33;;;;;;;14.05;3.00;;;6.80;99.90;;;;;;4995017;28;20507;-86
2022/12/26 09:04:01;;;;;;;14.65;3.17;;;6.70;99.90;;;;;;4996099;28;20053;-85
2022/12/26 09:06:34;;;;;;;7.43;2.55;;;6.60;99.90;;;;;;4998196;28;20186;-85
2022/12/26 09:09:01;;;;;;;10.65;2.47;;;6.70;99.90;;;;;;5017548;28;20084;-84
2022/12/26 09:11:30;;;;;;;12.73;2.63;;;6.50;99.90;;;;;;5012454;28;20058;-85
2022/12/26 09:14:00;;;;;;;14.35;2.45;;;6.50;99.90;;;;;;4998778;28;20053;-84
2022/12/26 09:16:35;;;;;;;12.38;2.15;;;5.70;99.90;;;;;;5009400;28;20114;-85
2022/12/26 09:19:03;;;;;;;10.80;2.47;;;6.60;99.90;;;;;;4998821;28;20089;-85
2022/12/26 09:21:38;;;;;;;12.48;2.50;;;6.50;99.90;;;;;;4996584;28;20056;-86
2022/12/26 09:24:12;;;;;;;13.45;2.42;;;6.70;99.90;;;;;;4999653;28;20045;-86
2022/12/26 09:26:41;;;;;;;12.27;2.63;;;6.70;99.90;;;;;;4996093;28;20045;-85
2022/12/26 09:29:10;;;;;;;12.02;2.88;;;6.60;99.90;;;;;;4998550;28;20136;-87
2022/12/26 09:31:36;;;;;;;20.75;3.47;;;6.70;99.90;;;;;;4979484;28;20079;-86
2022/12/26 09:34:04;;;;;;;16.08;2.83;;;6.60;99.90;;;;;;4995933;28;20654;-84
2022/12/26 09:36:38;;;;;;;18.10;3.50;;;6.90;99.90;;;;;;5001669;28;20053;-84
2022/12/26 09:39:11;;;;;;;18.52;3.45;;;6.70;99.90;;;;;;5013799;28;20045;-86
2022/12/26 09:42:09;;;;;;;12.05;2.40;;;6.80;99.90;;;;;;5020621;28;20119;-85
2022/12/26 09:45:01;;;;;;;11.98;2.40;;;6.80;99.90;;;;;;4994757;28;20061;-86
2022/12/26 09:47:42;;;;;;;17.60;2.40;;;6.90;99.90;;;;;;5015243;28;20061;-85
2022/12/26 09:50:15;;;;;;;11.70;2.15;;;6.90;99.90;;;;;;4993734;28;20226;-86
2022/12/26 09:52:53;;;;;;;15.38;3.33;;;7.00;99.90;;;;;;5017175;28;20050;-84
2022/12/26 09:55:48;;;;;;;11.05;2.15;;;6.80;99.90;;;;;;4998997;28;20399;-88
2022/12/26 09:58:17;;;;;;;18.83;2.70;;;6.60;99.90;;;;;;4993767;28;20095;-86
2022/12/26 10:01:08;;;;;;;12.23;2.33;;;6.50;99.90;;;;;;5010243;28;20574;-86
2022/12/26 10:03:45;;;;;;;11.43;2.63;;;6.50;99.90;;;;;;4984499;28;20053;-84
2022/12/26 10:06:11;;;;;;;16.20;2.50;;;6.50;99.90;;;;;;5009943;28;20097;-84
2022/12/26 10:08:57;;;;;;;13.80;2.47;;;6.40;99.90;;;;;;5012816;28;20054;-86
2022/12/26 10:11:52;;;;;;;10.07;1.95;;;6.30;99.90;;;;;;4989401;28;20120;-86
2022/12/26 10:14:39;;;;;;;11.43;2.20;;;6.30;99.90;;;;;;5005706;28;20139;-85
2022/12/26 10:17:26;;;;;;;7.50;1.63;;;6.30;99.90;;;;;;5012871;28;20048;-83
2022/12/26 10:20:14;;;;;;;8.60;1.48;;;6.30;99.90;;;;;;5011765;28;20050;-85
2022/12/26 10:23:13;;;;;;;9.07;1.88;;;5.50;99.90;;;;;;4994810;28;20510;-85
2022/12/26 10:25:45;;;;;;;11.27;2.00;;;5.10;99.90;;;;;;4996114;28;20088;-86
2022/12/26 10:28:23;;;;;;;6.70;2.05;;;6.50;99.90;;;;;;5010427;28;20047;-85
2022/12/26 10:30:51;;;;;;;7.25;1.70;;;5.30;99.90;;;;;;5008534;28;20042;-85
2022/12/26 10:33:27;;;;;;;7.43;1.77;;;6.40;99.90;;;;;;4996037;28;20046;-85
2022/12/26 10:35:54;;;;;;;10.13;1.90;;;6.00;99.90;;;;;;4997345;28;20135;-83
2022/12/26 10:38:32;;;;;;;11.27;2.45;;;6.40;99.90;;;;;;4999653;28;20077;-84
2022/12/26 10:41:05;;;;;;;9.90;2.10;;;6.40;99.90;;;;;;5009054;28;20572;-84
2022/12/26 10:43:34;;;;;;;10.57;1.70;;;6.30;99.90;;;;;;5010508;28;20050;-84
2022/12/26 10:46:25;;;;;;;9.30;2.25;;;6.40;99.90;;;;;;5014201;28;20045;-85
2022/12/26 10:48:51;;;;;;;13.80;2.42;;;6.40;99.90;;;;;;5012946;28;20487;-86
2022/12/26 10:51:16;;;;;;;12.68;2.03;;;6.30;99.90;;;;;;4974111;28;20045;-85
2022/12/26 10:53:48;;;;;;;14.60;2.65;;;6.40;99.90;;;;;;4967475;28;20053;-85
2022/12/26 10:56:15;;;;;;;10.10;2.03;;;6.50;99.90;;;;;;5012599;28;20053;-84
2022/12/26 10:58:43;;;;;;;13.75;3.20;;;6.50;99.90;;;;;;4994583;28;20507;-84
2022/12/26 11:01:46;;;;;;;15.30;2.47;;;6.50;99.90;;;;;;4982325;28;20089;-86
2022/12/26 11:04:19;;;;;;;10.13;2.25;;;6.60;99.90;;;;;;4954190;28;20062;-85
2022/12/26 11:06:51;;;;;;;15.18;2.28;;;6.50;99.90;;;;;;4994712;28;20051;-84
2022/12/26 11:09:44;;;;;;;8.48;2.15;;;6.50;99.90;;;;;;5007685;28;20048;-86
2022/12/26 11:12:48;;;;;;;12.27;2.75;;;6.70;99.90;;;;;;4996874;28;20054;-83
2022/12/26 11:15:40;;;;;;;10.80;2.35;;;6.70;99.90;;;;;;4990202;28;20600;-84
2022/12/26 11:18:45;;;;;;;9.70;2.22;;;6.90;99.90;;;;;;4994461;28;20067;-84
2022/12/26 11:21:22;;;;;;;15.02;2.55;;;6.90;99.90;;;;;;4986652;28;20128;-84
2022/12/26 11:23:51;;;;;;;11.45;2.20;;;6.90;99.90;;;;;;4991537;28;20046;-85
2022/12/26 11:26:28;;;;;;;13.63;2.17;;;7.00;99.90;;;;;;4995173;28;20046;-85
2022/12/26 11:29:09;;;;;;;17.23;2.50;;;7.10;99.90;;;;;;4990836;28;20100;-84
2022/12/26 11:31:36;;;;;;;13.45;2.20;;;7.10;99.90;;;;;;5009620;28;20053;-84
2022/12/26 11:34:16;;;;;;;14.70;2.83;;;7.00;99.90;;;;;;4982580;28;20263;-86
2022/12/26 11:36:48;;;;;;;12.25;2.25;;;7.10;99.90;;;;;;5009387;28;20049;-85
2022/12/26 11:39:30;;;;;;;12.68;2.72;;;7.00;99.90;;;;;;4994785;28;20514;-85
2022/12/26 11:41:57;;;;;;;11.77;2.45;;;7.00;99.90;;;;;;5014379;28;20041;-84
2022/12/26 11:44:30;;;;;;;9.07;2.13;;;6.90;99.90;;;;;;4997088;28;20111;-85
2022/12/26 11:47:16;;;;;;;10.90;2.30;;;6.90;99.90;;;;;;5016807;28;20076;-84
2022/12/26 11:49:45;;;;;;;;;;;6.90;99.90;;;;;;5007903;28;20176;-84
2022/12/26 11:52:38;;;;;;;11.55;2.13;;;6.90;99.90;;;;;;5013044;28;19948;-86
2022/12/26 11:55:22;;;;;;;9.30;2.72;;;7.00;99.90;;;;;;5012069;28;20451;-84
2022/12/26 11:57:57;;;;;;;10.05;2.47;;;6.90;99.90;;;;;;5007252;28;20069;-85
2022/12/26 12:00:23;;;;;;;8.73;2.10;;;6.80;99.90;;;;;;4996631;28;20064;-84
2022/12/26 12:02:49;;;;;;;8.40;1.85;;;6.80;99.90;;;;;;4992534;28;20044;-85
2022/12/26 12:05:46;;;;;;;11.15;2.30;;;6.70;99.90;;;;;;4979330;28;20491;-86
2022/12/26 12:08:46;;;;;;;15.65;2.38;;;6.70;99.90;;;;;;5006395;28;20065;-85
2022/12/26 12:11:28;;;;;;;10.55;1.73;;;6.80;99.90;;;;;;5011903;28;20053;-84
2022/12/26 12:14:17;;;;;;;12.88;1.88;;;6.80;99.90;;;;;;4994735;28;20046;-84
2022/12/26 12:17:18;;;;;;;12.93;2.35;;;6.60;99.90;;;;;;4996448;28;20064;-85
2022/12/26 12:20:03;;;;;;;8.63;1.75;;;6.60;99.90;;;;;;5012276;28;20465;-84
2022/12/26 12:23:16;;;;;;;7.97;1.83;;;6.60;99.90;;;;;;5011519;28;20585;-86
2022/12/26 12:25:59;;;;;;;9.35;2.00;;;6.60;99.90;;;;;;4960643;28;20577;-83
2022/12/26 12:29:01;;;;;;;10.50;1.90;;;6.60;99.90;;;;;;4996003;28;20046;-86
2022/12/26 12:31:52;;;;;;;10.20;2.05;;;6.70;99.90;;;;;;5010607;28;20771;-85
2022/12/26 12:34:29;;;;;;;10.73;2.20;;;6.70;99.90;;;;;;4990505;28;20509;-85
2022/12/26 12:37:24;;;;;;;10.63;2.22;;;6.80;99.90;;;;;;4992262;28;20081;-84
2022/12/26 12:39:49;;;;;;;8.48;2.30;;;6.90;99.90;;;;;;5024488;28;20132;-86
2022/12/26 12:42:18;;;;;;;13.57;2.17;;;7.70;99.90;;;;;;5009596;28;20045;-84
2022/12/26 12:45:12;;;;;;;;;;;;;;;;;;;;;
2022/12/26 12:47:58;;;;;;;15.02;2.88;;;7.00;99.90;;;;;;5026408;28;20050;-85
2022/12/26 12:50:47;;;;;;;11.10;2.58;;;7.00;99.90;;;;;;4995523;28;20044;-85
2022/12/26 12:53:22;;;;;;;12.57;2.65;;;7.30;99.90;;;;;;5010897;28;20415;-86
2022/12/26 12:56:10;;;;;;;13.52;2.25;;;6.90;99.90;;;;;;5008310;28;20046;-84
2022/12/26 12:59:09;;;;;;;13.10;2.38;;;6.90;99.90;;;;;;5009388;28;20073;-84
2022/12/26 13:01:42;;;;;;;10.02;2.20;;;6.80;99.90;;;;;;4999696;28;20499;-84
2022/12/26 13:04:19;;;;;;;7.72;2.05;;;6.80;99.90;;;;;;4996462;28;20055;-86
2022/12/26 13:06:46;;;;;;;;;;;6.80;99.90;;;;;;4999090;28;20062;-86
2022/12/26 13:09:25;;;;;;;8.50;1.80;;;6.80;99.90;;;;;;4999383;28;19948;-85
2022/12/26 13:12:06;;;;;;;15.25;2.40;;;6.70;99.90;;;;;;4998905;28;20116;-85
2022/12/26 13:15:00;;;;;;;13.00;2.30;;;6.80;99.90;;;;;;5000347;28;20648;-86
2022/12/26 13:17:45;;;;;;;10.98;1.65;;;6.70;99.90;;;;;;5012856;28;20069;-84
2022/12/26 13:20:27;;;;;;;9.38;1.92;;;6.70;99.90;;;;;;5016280;28;20052;-84
2022/12/26 13:25:49;;;;;;;9.57;2.45;;;7.10;99.90;;;;;;5014509;28;20053;-84
2022/12/26 13:28:26;;;;;;;19.92;2.50;;;6.40;99.90;;;;;;5016878;28;20109;-85
2022/12/26 13:30:58;;;;;;;10.75;2.05;;;6.60;99.90;;;;;;5015854;28;20081;-84
2022/12/26 13:33:27;;;;;;;9.85;2.03;;;5.30;99.90;;;;;;4993067;28;20121;-84
2022/12/26 13:36:00;;;;;;;9.02;2.58;;;6.60;99.90;;;;;;5005978;28;20112;-85
2022/12/26 13:38:57;;;;;;;7.00;1.88;;;6.50;99.90;;;;;;5013930;28;20107;-85
2022/12/26 13:44:18;;;;;;;7.70;1.67;;;6.60;99.90;;;;;;5012929;28;20580;-85
2022/12/26 13:46:47;;;;;;;11.43;2.10;;;6.40;99.90;;;;;;5013274;28;20527;-84
2022/12/26 13:49:28;;;;;;;9.98;2.10;;;6.50;99.90;;;;;;5009981;28;20323;-84
2022/12/26 13:52:01;;;;;;;9.65;2.03;;;6.50;99.90;;;;;;5010964;28;20058;-85
2022/12/26 13:54:27;;;;;;;8.98;1.80;;;7.00;99.90;;;;;;5013046;28;20049;-85
2022/12/26 13:57:43;;;;;;;11.98;1.85;;;6.40;99.90;;;;;;4966340;28;20054;-84
2022/12/26 14:00:22;;;;;;;6.95;1.60;;;6.20;99.90;;;;;;4952768;28;20739;-84
2022/12/26 14:02:48;;;;;;;14.55;2.05;;;6.30;99.90;;;;;;4967954;28;20044;-85
2022/12/26 14:05:56;;;;;;;9.38;1.60;;;5.60;99.90;;;;;;4995493;28;20046;-85
2022/12/26 14:09:04;;;;;;;6.32;1.77;;;6.30;99.90;;;;;;4952565;28;20587;-84
2022/12/26 14:11:59;;;;;;;11.32;2.22;;;6.30;99.90;;;;;;5009831;28;20057;-84
2022/12/26 14:14:50;;;;;;;9.75;1.80;;;6.30;99.90;;;;;;4995115;28;20063;-84
2022/12/26 14:17:21;;;;;;;12.93;2.42;;;6.20;99.90;;;;;;4996597;28;20084;-84
2022/12/26 14:20:18;;;;;;;10.40;1.95;;;6.30;99.90;;;;;;4994349;28;20766;-85
2022/12/26 14:23:24;;;;;;;9.43;3.00;;;6.20;99.90;;;;;;5013737;28;20432;-85
2022/12/26 14:25:55;;;;;;;7.78;1.85;;;6.20;99.90;;;;;;5012047;28;20144;-84
2022/12/26 14:28:33;;;;;;;11.48;1.88;;;6.10;99.90;;;;;;4994570;28;20068;-86
2022/12/26 14:31:41;;;;;;;11.38;2.03;;;6.10;99.90;;;;;;4992288;28;20053;-85
2022/12/26 14:34:24;;;;;;;11.13;1.88;;;6.10;99.90;;;;;;4971203;28;20500;-84
2022/12/26 14:37:13;;;;;;;12.75;2.30;;;6.10;99.90;;;;;;4996092;28;20077;-84
2022/12/26 14:40:02;;;;;;;10.18;2.22;;;6.00;99.90;;;;;;4990890;28;20100;-83
2022/12/26 14:45:28;;;;;;;9.53;1.90;;;6.00;99.90;;;;;;5010159;28;20047;-86
2022/12/26 14:47:54;;;;;;;6.50;1.77;;;6.00;99.90;;;;;;5016787;28;20060;-85
2022/12/26 14:50:45;;;;;;;6.07;1.80;;;5.90;99.90;;;;;;4996059;28;20049;-84
2022/12/26 14:53:29;;;;;;;9.85;1.40;;;5.90;99.90;;;;;;4994111;28;20053;-84
2022/12/26 14:56:14;;;;;;;11.68;1.90;;;5.10;99.90;;;;;;5012952;28;20049;-83
2022/12/26 14:58:42;;;;;;;13.13;2.28;;;5.90;99.90;;;;;;4994152;28;20399;-83
2022/12/26 15:01:08;;;;;;;10.07;1.98;;;5.90;99.90;;;;;;4992842;28;20092;-84
2022/12/26 15:03:43;;;;;;;8.00;1.80;;;4.60;99.90;;;;;;5008098;28;20049;-83
2022/12/26 15:06:18;;;;;;;8.23;1.90;;;5.80;99.90;;;;;;4994541;28;20459;-85
2022/12/26 15:09:12;;;;;;;7.78;1.85;;;5.80;99.90;;;;;;5007018;28;20054;-86
2022/12/26 15:12:08;;;;;;;10.55;2.53;;;5.70;99.90;;;;;;5009642;28;20045;-83
2022/12/26 15:14:50;;;;;;;8.52;1.83;;;5.70;99.90;;;;;;5008763;28;20164;-84
2022/12/26 15:17:54;;;;;;;9.48;1.88;;;5.70;99.90;;;;;;4991532;28;20043;-84
2022/12/26 15:20:23;;;;;;;7.30;1.67;;;5.60;99.90;;;;;;4971003;28;20084;-84
2022/12/26 15:23:16;;;;;;;10.27;1.70;;;5.60;99.90;;;;;;5012926;28;20089;-84
2022/12/26 15:26:12;;;;;;;11.65;1.90;;;5.60;99.90;;;;;;5013057;28;20124;-82
2022/12/26 15:28:57;;;;;;;11.15;1.98;;;5.60;99.90;;;;;;4995059;28;20034;-84
2022/12/26 15:31:41;;;;;;;7.00;1.90;;;5.80;99.90;;;;;;5008253;28;20050;-85
2022/12/26 15:34:35;;;;;;;11.27;2.42;;;5.40;99.90;;;;;;4996494;28;20057;-86
2022/12/26 15:37:16;;;;;;;9.55;1.92;;;5.50;99.90;;;;;;5009183;28;20563;-85
2022/12/26 15:40:18;;;;;;;13.18;2.42;;;5.50;99.90;;;;;;4995461;28;20123;-84
2022/12/26 15:43:28;;;;;;;8.57;1.77;;;5.50;99.90;;;;;;5012233;28;20403;-84
2022/12/26 15:46:09;;;;;;;9.05;1.65;;;5.50;99.90;;;;;;5007162;28;20056;-85
2022/12/26 15:48:49;;;;;;;12.63;2.17;;;5.60;99.90;;;;;;5008559;28;20057;-85
2022/12/26 15:51:36;;;;;;;12.82;2.10;;;5.60;99.90;;;;;;5010608;28;20096;-86
2022/12/26 15:54:26;;;;;;;9.55;1.83;;;4.80;99.90;;;;;;5010948;28;20077;-84
2022/12/26 15:57:07;;;;;;;11.05;2.20;;;6.30;99.90;;;;;;5003216;28;20053;-86
2022/12/26 15:59:45;;;;;;;9.88;2.30;;;5.60;99.90;;;;;;4992608;28;20053;-84
2022/12/26 16:02:29;;;;;;;7.47;1.63;;;5.50;99.90;;;;;;4998674;28;20117;-83
2022/12/26 16:05:25;;;;;;;13.25;2.30;;;5.50;99.90;;;;;;5011118;28;20081;-85
2022/12/26 16:08:46;;;;;;;12.65;2.72;;;5.50;99.90;;;;;;4953102;28;20058;-85